KAST/AST METAR and TAF weather

Enter ICAO airport designator
Station Type Date Time Source
KAST METAR 2021/09/25 12:55 UTC NOAA

KAST 251255Z AUTO 17003KT 5SM BR OVC003 11/11 A2989 RMK AO2 VIS 1 3/4 RWY 08 SLP120 T01060106


Station Type Date Time Source
KAST Decoded METAR 2021/09/25 12:55 UTC NOAA

PORT OF ASTORIA AIRPORT, OR, United States (KAST) 46-09N 123-53W 3M
Sep 25, 2021 - 08:55 AM EDT / 2021.09.25 1255 UTC
Wind: from the S (170 degrees) at 3 MPH (3 KT):0
Visibility: 5 mile(s):0
Sky conditions: overcast
Weather: mist
Temperature: 51.1 F (10.6 C)
Dew Point: 51.1 F (10.6 C)
Relative Humidity: 100%
Pressure (altimeter): 29.89 in. Hg (1012 hPa)
ob: KAST 251255Z AUTO 17003KT 5SM BR OVC003 11/11 A2989 RMK AO2 VIS 1 3/4 RWY 08 SLP120 T01060106
cycle: 13

Station Type Date Time Source
KAST TAF 2021/09/25 12:22 UTC NOAA

TAF KAST 251120Z 2512/2612 14003KT P6SM SKC
FM251400 22003KT 6SM BR OVC003
FM251700 22002KT 6SM BR SCT025 SCT250
FM260100 22007KT 4SM BR OVC007

Example: see airport list